Lanexa, Virginia
Current Conditions -  °F | °C
As of 3:15 PM on Monday 26 Jan 2015 (Local Time) from KFYJ Reporting Station
Overcast Overcast  
Wind Chill: 42°   Ceiling: 1400
Heat Index: 46°   Visibility: 10mi
Dew Point: 37°   Wind: 8mph
Humidity: 71%   Direction: 360°N
Pressure: 29.62"   Gusts: NA
Location:  37.4°N, 76.88°W
Report Text: KFYJ 262015Z AUTO 36007KT 10SM OVC014 08/03 A2962 RMK AO2 T00790030
Loading
Personal Weather Stations






























Interactive Weather Map New forecast layout! Learn more

10-Day Weather Forecast

Advertisements
Track Severe Weather on mobile